createdAt,value
2018-09-15T00:00:01.504Z,1.43
2018-09-15T00:02:30.070Z,1.37
2018-09-15T00:04:58.739Z,2.17
2018-09-15T00:07:27.328Z,1.70
2018-09-15T00:09:55.943Z,1.63
2018-09-15T00:12:24.674Z,1.73
2018-09-15T00:14:53.265Z,1.87
2018-09-15T00:17:21.996Z,1.80
2018-09-15T00:19:51.072Z,1.33
2018-09-15T00:22:19.685Z,2.33
2018-09-15T00:24:48.309Z,1.50
2018-09-15T00:27:16.891Z,1.40
2018-09-15T00:29:45.480Z,1.77
2018-09-15T00:32:14.220Z,1.63
2018-09-15T00:34:42.925Z,1.27
2018-09-15T00:37:11.505Z,1.43
2018-09-15T00:39:40.145Z,1.33
2018-09-15T00:42:08.837Z,1.50
2018-09-15T00:44:37.534Z,1.80
2018-09-15T00:47:06.303Z,1.80
2018-09-15T00:49:35.095Z,1.60
2018-09-15T00:52:03.717Z,1.60
2018-09-15T00:54:32.749Z,1.77
2018-09-15T00:57:01.312Z,1.53
2018-09-15T00:59:29.941Z,1.83
2018-09-15T01:01:58.617Z,1.63
2018-09-15T01:04:27.360Z,1.90
2018-09-15T01:06:55.990Z,2.07
2018-09-15T01:09:25.201Z,1.93
2018-09-15T01:11:53.894Z,1.87
2018-09-15T01:14:22.631Z,1.70
2018-09-15T01:16:51.341Z,2.37
2018-09-15T01:19:20.076Z,2.00
2018-09-15T01:21:48.809Z,2.10
2018-09-15T01:24:17.430Z,2.33
2018-09-15T01:26:46.104Z,2.10
2018-09-15T01:29:14.837Z,2.03
2018-09-15T01:31:43.473Z,2.43
2018-09-15T01:34:12.178Z,2.20
2018-09-15T01:36:41.404Z,2.27
2018-09-15T01:39:10.449Z,1.77
2018-09-15T01:41:39.473Z,1.83
2018-09-15T01:44:08.128Z,2.03
2018-09-15T01:46:36.823Z,2.17
2018-09-15T01:49:05.401Z,2.57
2018-09-15T01:51:34.018Z,2.17
2018-09-15T01:54:02.662Z,2.43
2018-09-15T01:56:31.261Z,2.40
2018-09-15T01:58:59.841Z,2.40
2018-09-15T02:01:28.553Z,2.50
2018-09-15T02:03:57.157Z,2.10
2018-09-15T02:06:25.777Z,2.60
2018-09-15T02:08:54.441Z,2.30
2018-09-15T02:11:23.095Z,1.93
2018-09-15T02:13:51.715Z,2.30
2018-09-15T02:16:20.397Z,2.03
2018-09-15T02:18:48.948Z,1.93
2018-09-15T02:21:17.549Z,2.23
2018-09-15T02:23:46.968Z,2.07
2018-09-15T02:26:15.685Z,2.87
2018-09-15T02:28:44.311Z,2.40
2018-09-15T02:31:12.958Z,2.70
2018-09-15T02:33:41.916Z,2.30
2018-09-15T02:36:10.545Z,2.80
2018-09-15T02:38:39.205Z,2.80
2018-09-15T02:41:07.782Z,2.30
2018-09-15T02:43:36.335Z,2.73
2018-09-15T02:46:04.870Z,2.53
2018-09-15T02:48:33.452Z,2.50
2018-09-15T02:51:02.037Z,2.37
2018-09-15T02:53:30.696Z,2.53
2018-09-15T02:55:59.278Z,3.17
2018-09-15T02:58:28.269Z,2.40
2018-09-15T03:00:56.874Z,2.80
2018-09-15T03:03:25.556Z,2.40
2018-09-15T03:05:54.188Z,2.30
2018-09-15T03:08:22.884Z,2.07
2018-09-15T03:10:51.634Z,2.40
2018-09-15T03:13:20.224Z,2.60
2018-09-15T03:15:48.785Z,2.10
2018-09-15T03:18:17.404Z,2.00
2018-09-15T03:20:46.004Z,1.97
2018-09-15T03:23:14.588Z,1.80
2018-09-15T03:25:43.263Z,2.13
2018-09-15T03:28:11.836Z,1.40
2018-09-15T03:30:40.470Z,1.77
2018-09-15T03:33:09.020Z,1.83
2018-09-15T03:35:37.592Z,1.77
2018-09-15T03:38:06.137Z,1.83
2018-09-15T03:40:34.766Z,1.37
2018-09-15T03:43:03.332Z,1.77
2018-09-15T03:45:31.878Z,1.77
2018-09-15T03:48:00.553Z,1.80
2018-09-15T03:50:29.459Z,1.93
2018-09-15T03:52:59.288Z,1.80
2018-09-15T03:55:28.551Z,1.77
2018-09-15T03:57:57.818Z,1.90
2018-09-15T04:00:26.333Z,1.70
2018-09-15T04:02:54.935Z,1.53
2018-09-15T04:05:24.073Z,1.80
2018-09-15T04:07:52.708Z,1.80
2018-09-15T04:10:21.327Z,2.00
2018-09-15T04:12:50.502Z,2.03
2018-09-15T04:15:19.136Z,1.90
2018-09-15T04:17:47.654Z,1.50
2018-09-15T04:20:16.291Z,1.90
2018-09-15T04:22:44.905Z,2.03
2018-09-15T04:25:13.579Z,1.33
2018-09-15T04:27:42.202Z,1.60
2018-09-15T04:30:10.859Z,2.00
2018-09-15T04:32:40.493Z,1.87
2018-09-15T04:35:09.078Z,1.63
2018-09-15T04:37:37.709Z,2.13
2018-09-15T04:40:06.326Z,2.00
2018-09-15T04:42:34.950Z,1.77
2018-09-15T04:45:03.693Z,1.93
2018-09-15T04:47:32.238Z,2.03
2018-09-15T04:50:00.863Z,2.40
2018-09-15T04:52:29.627Z,1.53
2018-09-15T04:54:58.260Z,1.97
2018-09-15T04:57:26.897Z,2.20
2018-09-15T04:59:55.504Z,1.70
2018-09-15T05:02:24.129Z,1.67
2018-09-15T05:04:54.247Z,1.70
2018-09-15T05:07:22.802Z,2.20
2018-09-15T05:09:51.407Z,2.37
2018-09-15T05:12:20.194Z,2.27
2018-09-15T05:14:48.805Z,1.70
2018-09-15T05:17:17.438Z,1.90
2018-09-15T05:19:46.010Z,1.90
2018-09-15T05:22:14.594Z,1.83
2018-09-15T05:24:43.177Z,1.80
2018-09-15T05:27:11.776Z,1.90
2018-09-15T05:29:40.325Z,2.03
2018-09-15T05:32:08.897Z,1.57
2018-09-15T05:34:37.542Z,2.10
2018-09-15T05:37:06.185Z,2.30
2018-09-15T05:39:34.761Z,1.90
2018-09-15T05:42:03.948Z,2.27
2018-09-15T05:44:32.654Z,1.83
2018-09-15T05:47:01.179Z,2.10
2018-09-15T05:49:29.840Z,2.43
2018-09-15T05:51:58.396Z,2.30
2018-09-15T05:54:26.967Z,1.80
2018-09-15T05:56:55.527Z,2.13
2018-09-15T05:59:24.104Z,1.90
2018-09-15T06:01:52.699Z,2.00
2018-09-15T06:04:21.274Z,2.10
2018-09-15T06:06:49.932Z,2.40
2018-09-15T06:09:19.161Z,1.77
2018-09-15T06:11:48.040Z,2.07
2018-09-15T06:14:16.849Z,1.90
2018-09-15T06:16:45.595Z,2.07
2018-09-15T06:19:14.386Z,1.90
2018-09-15T06:21:43.816Z,2.07
2018-09-15T06:24:13.436Z,2.23
2018-09-15T06:26:42.203Z,2.07
2018-09-15T06:29:10.932Z,2.20
2018-09-15T06:31:39.849Z,1.87
2018-09-15T06:34:08.727Z,1.97
2018-09-15T06:36:37.348Z,1.73
2018-09-15T06:39:08.791Z,1.80
2018-09-15T06:41:37.940Z,1.90
2018-09-15T06:44:06.766Z,2.33
2018-09-15T06:46:35.727Z,1.77
2018-09-15T06:49:04.340Z,2.17
2018-09-15T06:51:32.893Z,2.00
2018-09-15T06:54:02.098Z,2.13
2018-09-15T06:56:30.781Z,2.03
2018-09-15T06:58:59.720Z,2.03
2018-09-15T07:01:28.360Z,1.80
2018-09-15T07:03:56.949Z,2.20
2018-09-15T07:06:25.572Z,1.50
2018-09-15T07:08:54.394Z,2.00
2018-09-15T07:11:23.109Z,1.93
2018-09-15T07:13:52.651Z,2.33
2018-09-15T07:16:21.398Z,1.73
2018-09-15T07:18:50.229Z,1.90
2018-09-15T07:21:19.034Z,1.60
2018-09-15T07:23:47.666Z,2.13
2018-09-15T07:26:16.384Z,2.03
2018-09-15T07:28:45.106Z,1.60
2018-09-15T07:31:13.928Z,2.10
2018-09-15T07:33:42.993Z,1.63
2018-09-15T07:36:12.766Z,2.00
2018-09-15T07:38:41.505Z,1.80
2018-09-15T07:41:10.130Z,2.20
2018-09-15T07:43:38.846Z,1.90
2018-09-15T07:46:08.309Z,1.63
2018-09-15T07:48:37.109Z,1.90
2018-09-15T07:51:06.388Z,1.93
2018-09-15T07:53:35.033Z,2.07
2018-09-15T07:56:03.866Z,1.83
2018-09-15T07:58:32.982Z,1.87
2018-09-15T08:01:01.668Z,1.53
2018-09-15T08:03:30.419Z,1.80
2018-09-15T08:05:59.142Z,1.90
2018-09-15T08:08:28.503Z,1.83
2018-09-15T08:10:57.291Z,1.57
2018-09-15T08:13:26.403Z,1.77
2018-09-15T08:15:55.902Z,1.57
2018-09-15T08:18:24.690Z,1.57
2018-09-15T08:20:53.366Z,1.93
2018-09-15T08:23:22.272Z,1.30
2018-09-15T08:25:51.088Z,1.70
2018-09-15T08:28:19.775Z,1.60
2018-09-15T08:30:48.362Z,1.43
2018-09-15T08:33:17.034Z,1.97
2018-09-15T08:35:45.659Z,1.27
2018-09-15T08:38:14.297Z,1.43
2018-09-15T08:40:42.950Z,1.63
2018-09-15T08:43:11.652Z,1.67
2018-09-15T08:45:41.671Z,1.60
2018-09-15T08:48:10.473Z,1.40
2018-09-15T08:50:39.427Z,1.50
2018-09-15T08:53:08.084Z,1.63
2018-09-15T08:55:36.960Z,2.00
2018-09-15T08:58:06.637Z,1.57
2018-09-15T09:00:37.232Z,1.60
2018-09-15T09:03:06.726Z,1.60
2018-09-15T09:05:35.622Z,1.43
2018-09-15T09:08:04.350Z,1.30
2018-09-15T09:10:33.274Z,1.50
2018-09-15T09:13:02.023Z,1.43
2018-09-15T09:15:30.670Z,1.43
2018-09-15T09:17:59.461Z,1.50
2018-09-15T09:20:28.268Z,1.30
2018-09-15T09:22:56.970Z,1.27
2018-09-15T09:25:25.675Z,1.70
2018-09-15T09:27:54.245Z,1.37
2018-09-15T09:30:23.062Z,1.50
2018-09-15T09:32:52.915Z,1.33
2018-09-15T09:35:21.686Z,1.43
2018-09-15T09:37:50.445Z,1.60
2018-09-15T09:40:19.296Z,1.30
2018-09-15T09:42:47.984Z,1.47
2018-09-15T09:45:16.668Z,1.70
2018-09-15T09:47:45.395Z,2.27
2018-09-15T09:50:14.203Z,1.93
2018-09-15T09:52:43.799Z,2.00
2018-09-15T09:55:12.591Z,1.93
2018-09-15T09:57:42.728Z,7.33
2018-09-15T10:00:18.918Z,1.37
2018-09-15T10:02:48.348Z,1.40
2018-09-15T10:05:17.767Z,2.00
2018-09-15T10:07:46.616Z,1.70
2018-09-15T10:10:15.781Z,1.13
2018-09-15T10:12:44.833Z,1.70
2018-09-15T10:15:13.724Z,1.37
2018-09-15T10:17:43.242Z,2.60
2018-09-15T10:20:11.929Z,1.53
2018-09-15T10:22:40.675Z,6.67
2018-09-15T10:25:09.400Z,3.30
2018-09-15T10:27:39.118Z,2.37
2018-09-15T10:30:07.785Z,1.90
2018-09-15T10:32:36.565Z,1.60
2018-09-15T10:35:05.299Z,4.10
2018-09-15T10:37:34.763Z,2.77
2018-09-15T10:40:03.442Z,2.17
2018-09-15T10:42:32.229Z,2.30
2018-09-15T10:45:00.901Z,3.73
2018-09-15T10:47:30.266Z,2.10
2018-09-15T10:49:59.042Z,1.43
2018-09-15T10:52:27.928Z,1.47
2018-09-15T10:54:56.577Z,1.57
2018-09-15T10:57:25.288Z,3.97
2018-09-15T10:59:54.092Z,5.63
2018-09-15T11:02:22.830Z,2.00
2018-09-15T11:04:51.862Z,2.73
2018-09-15T11:07:20.481Z,1.40
2018-09-15T11:09:49.275Z,1.60
2018-09-15T11:12:18.056Z,1.40
2018-09-15T11:14:46.721Z,1.30
2018-09-15T11:17:15.419Z,1.60
2018-09-15T11:19:44.632Z,3.53
2018-09-15T11:22:14.275Z,5.23
2018-09-15T11:24:43.170Z,1.57
2018-09-15T11:27:11.874Z,1.10
2018-09-15T11:29:40.732Z,1.80
2018-09-15T11:32:13.384Z,1.50
2018-09-15T11:34:46.752Z,1.20
2018-09-15T11:37:16.230Z,1.33
2018-09-15T11:39:45.084Z,1.40
2018-09-15T11:42:13.828Z,1.30
2018-09-15T11:44:42.662Z,1.13
2018-09-15T11:47:11.412Z,1.57
2018-09-15T11:49:40.123Z,1.40
2018-09-15T11:52:08.763Z,1.30
2018-09-15T11:54:37.434Z,1.40
2018-09-15T11:57:06.157Z,5.43
2018-09-15T11:59:34.884Z,8.90
2018-09-15T12:02:03.739Z,1.80
2018-09-15T12:04:32.371Z,2.20
2018-09-15T12:07:01.042Z,1.70
2018-09-15T12:09:29.691Z,1.80
2018-09-15T12:11:58.496Z,1.80
2018-09-15T12:14:28.412Z,2.07
2018-09-15T12:16:57.174Z,1.67
2018-09-15T12:19:26.057Z,1.90
2018-09-15T12:21:54.912Z,2.00
2018-09-15T12:24:23.738Z,2.10
2018-09-15T12:26:52.531Z,2.17
2018-09-15T12:29:21.281Z,1.57
2018-09-15T12:31:50.138Z,1.80
2018-09-15T12:34:18.944Z,2.00
2018-09-15T12:36:47.604Z,2.40
2018-09-15T12:39:16.440Z,1.60
2018-09-15T12:41:45.133Z,1.53
2018-09-15T12:44:14.053Z,2.00
2018-09-15T12:46:42.769Z,2.07
2018-09-15T12:49:11.486Z,1.90
2018-09-15T12:51:40.365Z,2.43
2018-09-15T12:54:09.032Z,2.10
2018-09-15T12:56:37.742Z,2.10
2018-09-15T12:59:06.594Z,2.00
2018-09-15T13:01:37.124Z,1.60
2018-09-15T13:04:07.075Z,1.60
2018-09-15T13:06:36.886Z,2.03
2018-09-15T13:09:07.859Z,1.83
2018-09-15T13:11:36.780Z,1.70
2018-09-15T13:14:05.671Z,2.10
2018-09-15T13:16:35.493Z,1.90
2018-09-15T13:19:04.522Z,1.83
2018-09-15T13:21:33.223Z,1.80
2018-09-15T13:24:02.330Z,1.93
2018-09-15T13:26:31.881Z,2.13
2018-09-15T13:29:00.567Z,1.80
2018-09-15T13:31:29.287Z,1.90
2018-09-15T13:33:58.217Z,1.70
2018-09-15T13:36:27.045Z,1.90
2018-09-15T13:38:55.717Z,2.20
2018-09-15T13:41:24.307Z,2.00
2018-09-15T13:43:53.466Z,1.70
2018-09-15T13:46:22.257Z,1.70
2018-09-15T13:48:51.023Z,2.03
2018-09-15T13:51:19.708Z,1.80
2018-09-15T13:53:48.358Z,1.63
2018-09-15T13:56:17.030Z,2.23
2018-09-15T13:58:45.693Z,1.90
2018-09-15T14:01:14.282Z,2.00
2018-09-15T14:03:43.095Z,2.17
2018-09-15T14:06:12.027Z,1.80
2018-09-15T14:08:41.016Z,1.90
2018-09-15T14:11:09.939Z,1.90
2018-09-15T14:13:38.565Z,1.83
2018-09-15T14:16:07.248Z,1.93
2018-09-15T14:18:35.916Z,1.70
2018-09-15T14:21:05.405Z,2.00
2018-09-15T14:23:33.986Z,1.60
2018-09-15T14:26:02.613Z,2.17
2018-09-15T14:28:31.384Z,1.93
2018-09-15T14:31:00.085Z,2.17
2018-09-15T14:33:29.005Z,2.20
2018-09-15T14:35:57.782Z,2.03
2018-09-15T14:38:26.510Z,2.00
2018-09-15T14:40:55.252Z,2.13
2018-09-15T14:43:23.991Z,1.90
2018-09-15T14:45:52.781Z,1.87
2018-09-15T14:48:21.685Z,2.00
2018-09-15T14:50:50.539Z,2.30
2018-09-15T14:53:19.373Z,3.50
2018-09-15T14:55:49.261Z,2.40
2018-09-15T14:58:18.167Z,1.80
2018-09-15T15:00:48.131Z,1.93
2018-09-15T15:03:17.053Z,2.20
2018-09-15T15:05:45.799Z,2.27
2018-09-15T15:08:14.698Z,2.20
2018-09-15T15:10:43.739Z,2.53
2018-09-15T15:13:13.752Z,2.70
2018-09-15T15:15:42.585Z,2.93
2018-09-15T15:18:11.365Z,1.63
2018-09-15T15:20:40.173Z,1.70
2018-09-15T15:23:08.858Z,1.20
2018-09-15T15:25:37.811Z,1.50
2018-09-15T15:28:07.229Z,1.50
2018-09-15T15:30:36.206Z,1.90
2018-09-15T15:33:04.910Z,1.60
2018-09-15T15:35:34.069Z,1.60
2018-09-15T15:38:04.573Z,1.70
2018-09-15T15:40:33.853Z,1.20
2018-09-15T15:43:03.670Z,1.63
2018-09-15T15:45:32.995Z,1.67
2018-09-15T15:48:01.781Z,1.83
2018-09-15T15:50:31.371Z,1.90
2018-09-15T15:53:00.396Z,1.60
2018-09-15T15:55:29.129Z,2.10
2018-09-15T15:57:57.770Z,1.30
2018-09-15T16:00:26.743Z,1.43
2018-09-15T16:02:55.397Z,1.80
2018-09-15T16:05:24.125Z,1.77
2018-09-15T16:07:52.961Z,1.93
2018-09-15T16:10:21.717Z,2.13
2018-09-15T16:12:50.509Z,1.83
2018-09-15T16:15:19.568Z,1.37
2018-09-15T16:17:48.325Z,1.70
2018-09-15T16:20:17.191Z,1.40
2018-09-15T16:22:45.916Z,1.93
2018-09-15T16:25:14.607Z,1.47
2018-09-15T16:27:43.282Z,1.80
2018-09-15T16:30:12.159Z,1.60
2018-09-15T16:32:40.901Z,1.80
2018-09-15T16:35:09.667Z,1.27
2018-09-15T16:37:38.379Z,3.23
2018-09-15T16:40:07.153Z,2.07
2018-09-15T16:42:36.707Z,2.33
2018-09-15T16:45:05.388Z,1.70
2018-09-15T16:47:34.208Z,1.77
2018-09-15T16:50:02.938Z,1.73
2018-09-15T16:52:31.714Z,1.63
2018-09-15T16:55:00.449Z,2.07
2018-09-15T16:57:29.175Z,1.57
2018-09-15T16:59:58.490Z,2.17
2018-09-15T17:02:27.402Z,2.07
2018-09-15T17:04:56.199Z,2.00
2018-09-15T17:07:24.986Z,1.83
2018-09-15T17:09:54.004Z,2.00
2018-09-15T17:12:23.283Z,2.40
2018-09-15T17:14:52.671Z,1.80
2018-09-15T17:17:21.417Z,2.30
2018-09-15T17:19:50.638Z,1.73
2018-09-15T17:22:19.529Z,2.03
2018-09-15T17:24:48.433Z,1.77
2018-09-15T17:27:17.289Z,2.00
2018-09-15T17:29:46.059Z,1.83
2018-09-15T17:32:15.182Z,1.80
2018-09-15T17:34:43.816Z,2.20
2018-09-15T17:37:12.716Z,2.10
2018-09-15T17:39:41.827Z,1.90
2018-09-15T17:42:10.549Z,2.70
2018-09-15T17:44:39.385Z,1.90
2018-09-15T17:47:08.276Z,2.47
2018-09-15T17:49:38.066Z,2.03
2018-09-15T17:52:06.724Z,2.23
2018-09-15T17:54:35.543Z,2.23
2018-09-15T17:57:04.440Z,2.13
2018-09-15T17:59:33.803Z,2.63
2018-09-15T18:02:02.495Z,2.53
2018-09-15T18:04:31.219Z,2.13
2018-09-15T18:07:01.022Z,2.00
2018-09-15T18:09:29.751Z,2.30
2018-09-15T18:11:58.462Z,2.37
2018-09-15T18:14:27.148Z,2.60
2018-09-15T18:16:55.765Z,2.80
2018-09-15T18:19:25.458Z,2.60
2018-09-15T18:21:54.266Z,2.70
2018-09-15T18:24:22.999Z,2.33
2018-09-15T18:26:52.627Z,2.70
2018-09-15T18:29:21.408Z,2.33
2018-09-15T18:31:50.770Z,2.60
2018-09-15T18:34:20.142Z,2.63
2018-09-15T18:36:48.988Z,2.40
2018-09-15T18:39:17.670Z,2.63
2018-09-15T18:41:46.352Z,2.90
2018-09-15T18:44:15.303Z,2.97
2018-09-15T18:46:44.098Z,2.83
2018-09-15T18:49:12.868Z,2.63
2018-09-15T18:51:41.521Z,3.27
2018-09-15T18:54:10.212Z,2.83
2018-09-15T18:56:38.879Z,3.57
2018-09-15T18:59:07.922Z,3.13
2018-09-15T19:01:36.708Z,3.70
2018-09-15T19:04:05.433Z,3.50
2018-09-15T19:06:34.239Z,3.77
2018-09-15T19:09:03.015Z,3.73
2018-09-15T19:11:34.236Z,3.40
2018-09-15T19:14:03.598Z,4.13
2018-09-15T19:16:32.328Z,4.10
2018-09-15T19:19:01.017Z,4.67
2018-09-15T19:21:29.736Z,5.00
2018-09-15T19:23:58.444Z,4.70
2018-09-15T19:26:27.801Z,4.27
2018-09-15T19:28:56.457Z,4.47
2018-09-15T19:31:25.204Z,5.53
2018-09-15T19:33:54.173Z,4.67
2018-09-15T19:36:22.889Z,4.83
2018-09-15T19:38:51.747Z,4.93
2018-09-15T19:41:20.541Z,5.50
2018-09-15T19:43:49.325Z,5.77
2018-09-15T19:46:18.603Z,5.13
2018-09-15T19:48:47.862Z,5.63
2018-09-15T19:51:16.548Z,5.90
2018-09-15T19:53:45.233Z,6.37
2018-09-15T19:56:14.030Z,5.97
2018-09-15T19:58:42.710Z,6.53
2018-09-15T20:01:11.424Z,6.30
2018-09-15T20:03:40.750Z,6.30
2018-09-15T20:06:09.639Z,6.73
2018-09-15T20:08:38.346Z,6.73
2018-09-15T20:11:07.132Z,5.83
2018-09-15T20:13:36.004Z,5.80
2018-09-15T20:16:03.416Z,6.17
2018-09-15T20:18:30.846Z,6.57
2018-09-15T20:20:58.276Z,5.53
2018-09-15T20:23:27.077Z,6.40
2018-09-15T20:25:55.864Z,6.53
2018-09-15T20:28:24.613Z,5.73
2018-09-15T20:30:53.597Z,7.30
2018-09-15T20:33:22.489Z,8.13
2018-09-15T20:35:51.278Z,7.47
2018-09-15T20:38:20.124Z,8.27
2018-09-15T20:40:48.847Z,7.87
2018-09-15T20:43:17.609Z,7.13
2018-09-15T20:45:46.421Z,7.40
2018-09-15T20:48:15.676Z,7.30
2018-09-15T20:50:44.522Z,8.10
2018-09-15T20:53:14.070Z,8.30
2018-09-15T20:55:42.897Z,7.50
2018-09-15T20:58:11.614Z,8.43
2018-09-15T21:00:40.550Z,8.13
2018-09-15T21:03:09.728Z,8.07
2018-09-15T21:05:38.551Z,8.13
2018-09-15T21:08:07.562Z,7.57
2018-09-15T21:10:36.472Z,8.63
2018-09-15T21:13:05.336Z,7.87
2018-09-15T21:15:34.435Z,8.23
2018-09-15T21:18:03.337Z,8.60
2018-09-15T21:20:32.256Z,9.50
2018-09-15T21:23:01.015Z,9.40
2018-09-15T21:25:29.929Z,9.97
2018-09-15T21:27:58.736Z,8.43
2018-09-15T21:30:29.073Z,9.53
2018-09-15T21:32:57.899Z,10.20
2018-09-15T21:35:26.741Z,9.57
2018-09-15T21:37:55.493Z,9.03
2018-09-15T21:40:25.197Z,10.03
2018-09-15T21:42:54.220Z,10.47
2018-09-15T21:45:23.440Z,9.33
2018-09-15T21:47:52.764Z,9.73
2018-09-15T21:50:23.280Z,9.97
2018-09-15T21:52:52.577Z,9.60
2018-09-15T21:55:21.354Z,9.33
2018-09-15T21:57:49.923Z,8.93
2018-09-15T22:00:18.583Z,8.53
2018-09-15T22:02:47.249Z,8.97
2018-09-15T22:05:16.001Z,9.43
2018-09-15T22:07:44.614Z,9.10
2018-09-15T22:10:13.185Z,8.50
2018-09-15T22:12:41.945Z,9.87
2018-09-15T22:15:17.162Z,9.23
2018-09-15T22:17:51.514Z,8.93
2018-09-15T22:20:21.280Z,8.87
2018-09-15T22:22:49.889Z,8.57
2018-09-15T22:25:18.695Z,9.00
2018-09-15T22:27:47.977Z,8.63
2018-09-15T22:30:16.635Z,9.13
2018-09-15T22:32:45.674Z,11.07
2018-09-15T22:35:14.432Z,8.57
2018-09-15T22:37:43.493Z,9.20
2018-09-15T22:40:12.521Z,9.57
2018-09-15T22:42:41.667Z,8.03
2018-09-15T22:45:10.423Z,8.00
2018-09-15T22:47:40.062Z,8.17
2018-09-15T22:50:09.700Z,8.70
2018-09-15T22:52:39.498Z,8.63
2018-09-15T22:55:09.550Z,8.60
2018-09-15T22:57:38.490Z,7.53
2018-09-15T23:00:12.286Z,8.60
2018-09-15T23:02:41.108Z,7.17
2018-09-15T23:05:10.423Z,7.43
2018-09-15T23:07:39.260Z,8.30
2018-09-15T23:10:08.560Z,7.13
2018-09-15T23:12:38.040Z,7.00
2018-09-15T23:15:06.961Z,7.37
2018-09-15T23:17:37.024Z,7.87
2018-09-15T23:20:06.588Z,7.17
2018-09-15T23:22:36.400Z,6.93
2018-09-15T23:25:05.856Z,7.33
2018-09-15T23:27:34.903Z,7.23
2018-09-15T23:30:03.755Z,6.90
2018-09-15T23:32:32.949Z,7.13
2018-09-15T23:35:02.334Z,7.20
2018-09-15T23:37:32.637Z,7.47
2018-09-15T23:40:01.517Z,7.00
2018-09-15T23:42:30.961Z,7.40
2018-09-15T23:45:00.651Z,6.67
2018-09-15T23:47:29.435Z,7.43
2018-09-15T23:49:58.848Z,7.50
2018-09-15T23:52:27.648Z,7.43
2018-09-15T23:54:56.748Z,7.67
2018-09-15T23:57:31.023Z,7.00
